Time;durP1;ratioP1;P1;durP2;ratioP2;P2;SDS_P1;SDS_P2;PMS_P1;PMS_P2;Temp;Humidity;BMP_temperature;BMP_pressure;BME280_temperature;BME280_humidity;BME280_pressure;Samples;Min_cycle;Max_cycle;Signal;HPM_P1;HPM_P2
2021/12/05 00:22:36;;;;;;;15.13;5.53;;;;;;;1.34;100.00;99812.59;5054719;28;20491;-85
2021/12/05 00:24:32;;;;;;;18.05;5.47;;;;;;;1.34;100.00;99818.63;5045127;28;20037;-85
2021/12/05 00:27:06;;;;;;;17.48;5.20;;;;;;;1.36;100.00;99814.31;5055205;28;20037;-85
2021/12/05 00:35:44;;;;;;;23.25;6.47;;;;;;;1.29;100.00;99819.47;5058816;28;20124;-86
2021/12/05 00:48:55;;;;;;;23.42;6.47;;;;;;;1.01;100.00;99816.94;5065657;28;20105;-86
2021/12/05 00:59:29;;;;;;;24.52;6.25;;;;;;;0.93;100.00;99814.41;5053283;28;20028;-85
2021/12/05 01:12:21;;;;;;;25.10;6.82;;;;;;;0.77;100.00;99829.81;5053772;28;20067;-85
2021/12/05 01:17:30;;;;;;;24.95;6.45;;;;;;;0.70;100.00;99819.53;5054202;28;20044;-85
2021/12/05 01:19:57;;;;;;;28.13;7.13;;;;;;;0.66;100.00;99822.97;5052965;28;20024;-85
2021/12/05 01:22:23;;;;;;;30.13;7.45;;;;;;;0.66;100.00;99817.81;5054008;28;20490;-84
2021/12/05 01:27:42;;;;;;;27.98;6.40;;;;;;;0.61;100.00;99819.53;5053105;28;20488;-85
2021/12/05 01:30:26;;;;;;;23.45;6.13;;;;;;;0.57;100.00;99822.94;5046195;28;20052;-85
2021/12/05 01:33:13;;;;;;;30.80;6.53;;;;;;;0.53;100.00;99812.69;5051016;28;20040;-85
2021/12/05 01:38:33;;;;;;;27.05;6.28;;;;;;;0.50;100.00;99816.09;5052731;28;20043;-85
2021/12/05 01:46:31;;;;;;;23.20;6.00;;;;;;;0.52;100.00;99824.63;5053613;28;20033;-85
2021/12/05 01:49:06;;;;;;;31.60;5.72;;;;;;;0.54;100.00;99828.06;5052947;28;20400;-85
2021/12/05 01:51:52;;;;;;;31.75;6.88;;;;;;;0.62;100.00;99826.38;5053471;28;20021;-85
2021/12/05 02:16:37;;;;;;;25.83;5.70;;;;;;;0.52;100.00;99808.41;5038004;28;20039;-84
2021/12/05 02:35:14;;;;;;;29.70;5.82;;;;;;;0.66;100.00;99791.31;5053115;28;20119;-85
2021/12/05 02:38:11;;;;;;;27.10;6.05;;;;;;;0.72;100.00;99799.03;5051797;28;20045;-84
2021/12/05 02:41:05;;;;;;;26.10;5.30;;;;;;;0.72;100.00;99790.44;5052119;28;20053;-85
2021/12/05 02:43:38;;;;;;;19.90;4.10;;;;;;;0.68;100.00;99785.31;5051735;28;20408;-85
2021/12/05 02:46:05;;;;;;;28.58;7.05;;;;;;;0.67;100.00;99788.75;5067663;28;20031;-85
2021/12/05 02:48:34;;;;;;;26.35;5.28;;;;;;;0.66;100.00;99791.31;5059790;28;20457;-84
2021/12/05 02:51:01;;;;;;;22.85;4.55;;;;;;;0.72;100.00;99800.72;5051597;28;20032;-84
2021/12/05 02:53:39;;;;;;;26.30;5.50;;;;;;;0.77;100.00;99799.88;5052256;28;20079;-85
2021/12/05 02:56:06;;;;;;;20.20;5.38;;;;;;;0.80;100.00;99794.72;5052432;28;20123;-84
2021/12/05 02:58:48;;;;;;;20.38;4.85;;;;;;;0.78;100.00;99799.00;5051421;28;20063;-84
2021/12/05 03:01:27;;;;;;;18.40;5.10;;;;;;;0.82;100.00;99803.28;5053208;28;20025;-84
2021/12/05 03:03:53;;;;;;;20.30;4.80;;;;;;;0.88;100.00;99807.53;5052308;28;20465;-84
2021/12/05 03:06:24;;;;;;;18.35;5.20;;;;;;;0.97;100.00;99814.41;5051231;28;20372;-85
2021/12/05 03:08:53;;;;;;;19.52;5.30;;;;;;;1.06;100.00;99806.69;5051917;28;20025;-85
2021/12/05 03:11:20;;;;;;;29.80;5.95;;;;;;;1.11;100.00;99793.00;5052070;28;20028;-86
2021/12/05 03:13:45;;;;;;;24.45;6.35;;;;;;;1.19;100.00;99789.56;5050482;28;20037;-85
2021/12/05 03:16:13;;;;;;;18.27;5.72;;;;;;;1.21;100.00;99793.84;5044882;28;20503;-85
2021/12/05 03:18:40;;;;;;;27.05;6.78;;;;;;;1.23;100.00;99784.41;5051075;28;20033;-85
2021/12/05 03:21:07;;;;;;;22.02;5.93;;;;;;;1.25;100.00;99792.97;5051818;28;20029;-84
2021/12/05 03:23:37;;;;;;;25.10;6.53;;;;;;;1.23;100.00;99794.66;5052138;28;20025;-84
2021/12/05 03:26:10;;;;;;;26.02;7.05;;;;;;;1.25;100.00;99784.41;5051122;28;20040;-84
2021/12/05 03:28:37;;;;;;;20.73;6.20;;;;;;;1.28;100.00;99781.84;5051855;28;20457;-85
2021/12/05 03:31:03;;;;;;;23.95;7.50;;;;;;;1.23;100.00;99776.69;5072588;28;20016;-85
2021/12/05 03:33:28;;;;;;;22.48;7.00;;;;;;;1.27;100.00;99785.25;5068793;28;20142;-85
2021/12/05 03:35:54;;;;;;;20.35;7.28;;;;;;;1.24;100.00;99782.69;5064562;28;20033;-85
2021/12/05 03:38:19;;;;;;;19.20;6.95;;;;;;;1.22;100.00;99789.56;5051657;28;20029;-85
2021/12/05 03:40:45;;;;;;;22.38;7.68;;;;;;;1.17;100.00;99787.81;5050909;28;20047;-84
2021/12/05 03:43:15;;;;;;;25.35;8.60;;;;;;;1.25;100.00;99787.81;5051651;28;20029;-84
2021/12/05 03:45:44;;;;;;;22.92;8.43;;;;;;;1.25;100.00;99766.44;5051461;28;20111;-85
2021/12/05 03:48:13;;;;;;;23.38;8.38;;;;;;;1.36;100.00;99790.34;5067221;28;20380;-86
2021/12/05 03:50:39;;;;;;;21.45;8.02;;;;;;;1.37;100.00;99790.38;5071823;28;20102;-84
2021/12/05 03:53:06;;;;;;;26.35;8.85;;;;;;;1.38;100.00;99774.09;5068838;28;20158;-85
2021/12/05 03:55:32;;;;;;;24.35;9.15;;;;;;;1.45;100.00;99786.91;5050548;28;20377;-85
2021/12/05 03:57:57;;;;;;;30.88;9.10;;;;;;;1.51;100.00;99786.91;5051727;28;20024;-85
2021/12/05 04:00:26;;;;;;;24.65;9.10;;;;;;;1.54;100.00;99795.44;5051345;28;20504;-85
2021/12/05 04:02:54;;;;;;;20.08;7.78;;;;;;;1.51;100.00;99774.06;5066066;28;20028;-84
2021/12/05 04:05:21;;;;;;;24.98;9.02;;;;;;;1.57;100.00;99781.72;5051550;28;20057;-85
2021/12/05 04:07:46;;;;;;;22.25;9.23;;;;;;;1.60;100.00;99782.59;5049672;28;20393;-84
2021/12/05 04:10:12;;;;;;;23.33;8.75;;;;;;;1.64;100.00;99788.56;5051268;28;20021;-85
2021/12/05 04:12:38;;;;;;;24.30;9.02;;;;;;;1.65;100.00;99787.69;5051400;28;20025;-84
2021/12/05 04:15:04;;;;;;;23.90;8.27;;;;;;;1.67;100.00;99791.13;5050088;28;20112;-85
2021/12/05 04:17:30;;;;;;;18.35;7.82;;;;;;;1.70;100.00;99787.66;5062368;28;20025;-85
2021/12/05 04:19:56;;;;;;;30.67;8.40;;;;;;;1.68;100.00;99781.69;5067979;28;20033;-85
2021/12/05 04:22:21;;;;;;;17.25;7.82;;;;;;;1.70;100.00;99785.09;5067778;28;20024;-85
2021/12/05 04:24:47;;;;;;;18.02;7.28;;;;;;;1.75;100.00;99785.94;5051082;28;20028;-85
2021/12/05 04:27:13;;;;;;;25.05;7.25;;;;;;;1.73;100.00;99779.94;5051545;28;20025;-85
2021/12/05 04:29:38;;;;;;;19.88;7.43;;;;;;;1.75;100.00;99791.06;5050101;28;20136;-85
2021/12/05 04:32:04;;;;;;;18.02;7.45;;;;;;;1.77;100.00;99784.22;5059180;28;20107;-84
2021/12/05 04:34:30;;;;;;;18.00;7.75;;;;;;;1.82;100.00;99795.31;5051129;28;20491;-85
2021/12/05 04:36:56;;;;;;;18.30;7.53;;;;;;;1.80;100.00;99789.34;5050664;28;20072;-85
2021/12/05 04:39:24;;;;;;;16.25;7.00;;;;;;;1.84;100.00;99798.75;5051382;28;20366;-84
2021/12/05 04:41:50;;;;;;;19.48;7.53;;;;;;;1.82;100.00;99797.91;5054649;28;20063;-85
2021/12/05 04:44:15;;;;;;;16.58;6.75;;;;;;;1.83;100.00;99794.44;5054157;28;20021;-85
2021/12/05 04:46:41;;;;;;;19.23;7.28;;;;;;;1.84;100.00;99793.63;5061777;28;20460;-85
2021/12/05 04:49:07;;;;;;;15.63;7.63;;;;;;;1.78;100.00;99783.34;5058731;28;20029;-85
2021/12/05 04:51:38;;;;;;;13.98;7.53;;;;;;;1.91;100.00;99790.16;5053821;28;20068;-84
2021/12/05 04:54:06;;;;;;;15.60;6.95;;;;;;;1.83;100.00;99781.59;5054553;28;20469;-85
2021/12/05 04:56:33;;;;;;;16.45;6.80;;;;;;;1.86;100.00;99785.03;5054383;28;20461;-84
2021/12/05 04:58:59;;;;;;;22.40;7.20;;;;;;;1.80;100.00;99784.22;5053627;28;20029;-85
2021/12/05 05:01:26;;;;;;;14.98;7.25;;;;;;;1.87;100.00;99788.47;5054426;28;20457;-85
2021/12/05 05:03:52;;;;;;;16.42;6.57;;;;;;;1.87;100.00;99791.88;5049843;28;20033;-85
2021/12/05 05:06:19;;;;;;;16.42;6.53;;;;;;;1.88;100.00;99795.28;5053579;28;20102;-86
2021/12/05 05:08:48;;;;;;;15.25;6.75;;;;;;;1.88;100.00;99790.16;5052946;28;20036;-85
2021/12/05 05:11:15;;;;;;;12.93;7.28;;;;;;;1.87;100.00;99788.47;5053573;28;20075;-85
2021/12/05 05:13:41;;;;;;;18.92;7.28;;;;;;;1.87;100.00;99786.75;5054382;28;20025;-85
2021/12/05 05:16:08;;;;;;;14.10;6.45;;;;;;;1.84;100.00;99784.19;5054799;28;20025;-86
2021/12/05 05:18:48;;;;;;;12.32;6.47;;;;;;;1.85;100.00;99790.16;5052156;28;20032;-84
2021/12/05 05:29:08;;;;;;;12.52;5.55;;;;;;;1.86;100.00;99802.16;5053901;28;20033;-85
2021/12/05 05:43:14;;;;;;;11.77;5.22;;;;;;;1.86;100.00;99808.16;5054101;28;20041;-85
2021/12/05 05:45:43;;;;;;;9.00;4.68;;;;;;;1.82;100.00;99821.88;5048705;28;20032;-86
2021/12/05 05:50:38;;;;;;;9.23;4.40;;;;;;;1.76;100.00;99821.03;5053792;28;20025;-85
2021/12/05 05:53:04;;;;;;;5.55;3.90;;;;;;;1.71;100.00;99828.78;5053911;28;20108;-84
2021/12/05 05:55:29;;;;;;;6.88;3.88;;;;;;;1.69;100.00;99834.78;5052707;28;20029;-85
2021/12/05 06:00:35;;;;;;;5.25;3.63;;;;;;;1.62;100.00;99828.81;5052539;28;20029;-85
2021/12/05 06:05:44;;;;;;;8.00;4.10;;;;;;;1.59;100.00;99834.81;5065333;28;20476;-85
2021/12/05 06:08:09;;;;;;;6.80;4.10;;;;;;;1.52;100.00;99830.56;5053292;28;20294;-84
2021/12/05 06:10:35;;;;;;;8.65;4.03;;;;;;;1.52;100.00;99838.25;5053148;28;20104;-85
2021/12/05 06:13:00;;;;;;;7.90;4.57;;;;;;;1.55;100.00;99839.97;5053075;28;20125;-85
2021/12/05 06:15:28;;;;;;;7.53;4.28;;;;;;;1.54;100.00;99843.41;5052373;28;20017;-84
2021/12/05 06:17:54;;;;;;;8.93;4.80;;;;;;;1.49;100.00;99840.81;5052606;28;20044;-84
2021/12/05 06:20:23;;;;;;;8.68;4.80;;;;;;;1.53;100.00;99844.25;5062348;28;20059;-85
2021/12/05 06:22:49;;;;;;;8.25;4.07;;;;;;;1.54;100.00;99846.81;5072266;28;20039;-85
2021/12/05 06:25:20;;;;;;;9.00;4.90;;;;;;;1.47;100.00;99833.97;5067345;28;20024;-85
2021/12/05 06:27:47;;;;;;;9.80;4.78;;;;;;;1.54;100.00;99844.25;5052785;28;20060;-85
2021/12/05 06:30:20;;;;;;;12.48;5.25;;;;;;;1.52;100.00;99851.09;5052020;28;20131;-85
2021/12/05 06:41:17;;;;;;;10.07;4.68;;;;;;;1.58;100.00;99869.06;5053329;28;20040;-85
2021/12/05 06:48:43;;;;;;;8.63;4.88;;;;;;;1.59;100.00;99873.34;5054013;28;20056;-86
2021/12/05 06:51:10;;;;;;;8.32;4.93;;;;;;;1.57;100.00;99867.38;5071733;28;20043;-85
2021/12/05 06:53:36;;;;;;;8.13;5.15;;;;;;;1.60;100.00;99872.50;5072362;28;20026;-86
2021/12/05 06:56:02;;;;;;;9.05;5.15;;;;;;;1.59;100.00;99875.91;5066618;28;20021;-85
2021/12/05 06:58:27;;;;;;;10.77;4.80;;;;;;;1.62;100.00;99873.34;5051545;28;20070;-85
2021/12/05 07:00:53;;;;;;;10.77;5.47;;;;;;;1.62;100.00;99881.03;5051806;28;20021;-85
2021/12/05 07:03:18;;;;;;;10.93;5.55;;;;;;;1.61;100.00;99886.19;5052324;28;20389;-86
2021/12/05 07:05:57;;;;;;;13.73;5.80;;;;;;;1.61;100.00;99884.47;5071530;28;20024;-85
2021/12/05 07:08:26;;;;;;;12.68;6.05;;;;;;;1.66;100.00;99899.88;5052146;28;20122;-85
2021/12/05 07:15:59;;;;;;;13.30;6.93;;;;;;;1.69;100.00;99906.72;5052082;28;20041;-86
2021/12/05 07:42:42;;;;;;;15.43;7.55;;;;;;;1.86;100.00;99933.22;5051795;28;20056;-86
2021/12/05 07:45:11;;;;;;;13.02;7.68;;;;;;;1.86;100.00;99935.78;5051628;28;20469;-86
2021/12/05 07:47:40;;;;;;;14.18;7.68;;;;;;;1.87;100.00;99937.53;5050636;28;20036;-86
2021/12/05 07:50:09;;;;;;;14.63;7.53;;;;;;;1.88;100.00;99939.22;5056317;28;20029;-86
2021/12/05 07:52:40;;;;;;;14.30;7.38;;;;;;;1.89;100.00;99948.63;5071614;28;20060;-86
2021/12/05 07:55:21;;;;;;;12.65;6.70;;;;;;;1.88;100.00;99944.38;5071063;28;20029;-86
2021/12/05 07:58:10;;;;;;;11.50;6.75;;;;;;;1.88;100.00;99945.22;5058828;28;20460;-86
2021/12/05 08:14:25;;;;;;;14.68;7.07;;;;;;;1.98;100.00;99965.78;5051355;28;20167;-86
2021/12/05 08:14:27;;;;;;;13.85;7.00;;;;;;;1.91;100.00;99946.09;5050979;28;20106;-86
2021/12/05 08:14:46;;;;;;;13.60;6.95;;;;;;;1.90;100.00;99952.06;5052457;28;20065;-86
2021/12/05 08:17:16;;;;;;;14.07;7.30;;;;;;;1.95;100.00;99958.06;5075558;28;20032;-86
2021/12/05 08:19:42;;;;;;;18.08;7.45;;;;;;;2.01;100.00;99970.91;5062992;28;20029;-86
2021/12/05 08:22:08;;;;;;;13.57;6.97;;;;;;;2.03;100.00;99970.06;5054904;28;20051;-86
2021/12/05 08:24:36;;;;;;;14.90;6.75;;;;;;;2.04;100.00;99969.19;5055443;28;20025;-86
2021/12/05 08:27:04;;;;;;;13.82;7.38;;;;;;;2.05;100.00;99968.31;5055732;28;20024;-86
2021/12/05 08:29:37;;;;;;;14.10;7.15;;;;;;;2.06;100.00;99970.03;5054389;28;20032;-86
2021/12/05 08:32:18;;;;;;;15.63;7.15;;;;;;;2.01;100.00;99969.19;5055554;28;20033;-86
2021/12/05 08:35:33;;;;;;;11.82;6.85;;;;;;;2.10;100.00;99987.16;5054484;28;20029;-86
2021/12/05 08:43:19;;;;;;;11.43;6.45;;;;;;;2.15;100.00;99983.72;5054060;28;20063;-86
2021/12/05 09:21:36;;;;;;;13.68;8.85;;;;;;;2.29;100.00;100030.84;5048814;28;20075;-85
2021/12/05 09:26:54;;;;;;;17.25;9.57;;;;;;;2.33;100.00;100043.69;5052852;28;20492;-84
2021/12/05 09:50:54;;;;;;;18.70;11.02;;;;;;;2.43;100.00;100061.66;5052752;28;20044;-84
2021/12/05 09:51:49;;;;;;;19.98;11.40;;;;;;;2.48;100.00;100080.50;5053801;28;20079;-85
2021/12/05 10:08:56;;;;;;;19.85;11.63;;;;;;;2.54;100.00;100088.22;5052265;28;20040;-85
2021/12/05 10:11:31;;;;;;;20.58;11.98;;;;;;;2.62;100.00;100103.66;5031925;28;20451;-84
2021/12/05 10:14:24;;;;;;;18.58;11.18;;;;;;;2.62;100.00;100104.50;5032842;28;20032;-86
2021/12/05 10:38:38;;;;;;;16.52;10.68;;;;;;;2.65;100.00;100134.50;5072081;28;20037;-85
2021/12/05 10:43:40;;;;;;;19.83;10.23;;;;;;;2.64;100.00;100136.22;5047597;28;20037;-84
2021/12/05 10:46:10;;;;;;;17.55;10.63;;;;;;;2.65;100.00;100132.81;5032503;28;20124;-83
2021/12/05 10:48:52;;;;;;;15.98;10.52;;;;;;;2.60;100.00;100125.94;5051374;28;20032;-85
2021/12/05 10:51:21;;;;;;;15.70;9.50;;;;;;;2.59;100.00;100132.81;5050578;28;20028;-85
2021/12/05 10:53:49;;;;;;;17.73;9.88;;;;;;;2.57;100.00;100132.78;5053627;28;20131;-85
2021/12/05 10:56:34;;;;;;;13.50;8.45;;;;;;;2.60;100.00;100143.97;5071535;28;20020;-84
2021/12/05 10:59:08;;;;;;;13.45;8.52;;;;;;;2.58;100.00;100144.81;5050419;28;20540;-84
2021/12/05 11:01:36;;;;;;;11.32;8.00;;;;;;;2.63;100.00;100146.53;5052495;28;20439;-84
2021/12/05 11:04:03;;;;;;;12.50;8.20;;;;;;;2.73;100.00;100153.38;5060083;28;20032;-84
2021/12/05 11:06:47;;;;;;;13.18;7.57;;;;;;;2.84;100.00;100156.75;5051260;28;20055;-84
2021/12/05 11:09:18;;;;;;;9.77;7.35;;;;;;;2.95;100.00;100149.88;5051769;28;20056;-84
2021/12/05 11:11:47;;;;;;;10.25;6.97;;;;;;;3.03;100.00;100145.53;5051106;28;20029;-85
2021/12/05 11:14:25;;;;;;;12.27;8.05;;;;;;;3.11;100.00;100142.94;5050593;28;20056;-85
2021/12/05 11:17:13;;;;;;;12.18;8.13;;;;;;;3.14;100.00;100155.81;5051267;28;20036;-84
2021/12/05 11:19:42;;;;;;;10.52;8.02;;;;;;;3.06;100.00;100149.81;5048569;28;20110;-84
2021/12/05 11:22:23;;;;;;;11.23;7.95;;;;;;;2.99;100.00;100150.72;5051197;28;20433;-84
2021/12/05 11:24:55;;;;;;;12.93;8.38;;;;;;;2.94;100.00;100148.16;5061134;28;20051;-85
2021/12/05 11:27:25;;;;;;;13.82;9.40;;;;;;;3.02;100.00;100150.69;5071600;28;20047;-84
2021/12/05 11:30:00;;;;;;;14.70;9.57;;;;;;;3.04;100.00;100160.13;5052388;28;20030;-84
2021/12/05 11:32:39;;;;;;;15.38;9.60;;;;;;;3.07;100.00;100156.66;5049939;28;20033;-85
2021/12/05 11:35:22;;;;;;;12.73;8.70;;;;;;;2.99;100.00;100156.72;5051875;28;20537;-85
2021/12/05 11:38:05;;;;;;;12.10;8.43;;;;;;;2.97;100.00;100176.44;5051063;28;20031;-83
2021/12/05 11:40:42;;;;;;;11.70;7.85;;;;;;;2.92;100.00;100172.19;5032078;28;20069;-85
2021/12/05 11:43:07;;;;;;;12.20;8.70;;;;;;;2.90;100.00;100177.34;5039208;28;20036;-85
2021/12/05 11:45:51;;;;;;;14.40;8.63;;;;;;;2.91;100.00;100175.59;5050528;28;20029;-84
2021/12/05 11:48:23;;;;;;;14.55;9.50;;;;;;;2.90;100.00;100186.78;5042568;28;20120;-84
2021/12/05 11:50:49;;;;;;;14.27;9.52;;;;;;;2.90;100.00;100191.94;5055601;28;20025;-84
2021/12/05 11:53:15;;;;;;;12.95;9.02;;;;;;;2.89;100.00;100190.22;5055234;28;20496;-84
2021/12/05 11:55:40;;;;;;;13.32;9.30;;;;;;;2.92;100.00;100182.50;5055811;28;20036;-85
2021/12/05 11:58:18;;;;;;;11.63;8.32;;;;;;;2.93;100.00;100191.91;5055361;28;20171;-85
2021/12/05 12:00:44;;;;;;;12.23;8.50;;;;;;;2.91;100.00;100184.22;5038180;28;20386;-86
2021/12/05 12:03:10;;;;;;;12.60;8.32;;;;;;;2.95;100.00;100198.78;5044796;28;20017;-85
2021/12/05 12:05:37;;;;;;;11.35;8.10;;;;;;;3.00;100.00;100201.34;5053918;28;20029;-84
2021/12/05 12:08:09;;;;;;;11.00;8.15;;;;;;;3.09;100.00;100208.19;5054893;28;20465;-85
2021/12/05 12:10:39;;;;;;;13.48;8.60;;;;;;;3.14;100.00;100209.00;5054700;28;20021;-85
2021/12/05 12:13:07;;;;;;;11.50;8.32;;;;;;;3.08;100.00;100202.19;5054315;28;20029;-85
2021/12/05 12:15:33;;;;;;;12.18;8.35;;;;;;;3.10;100.00;100207.31;5054014;28;20033;-86
2021/12/05 12:18:08;;;;;;;12.13;8.70;;;;;;;3.07;100.00;100212.47;5055197;28;20029;-85
2021/12/05 12:20:39;;;;;;;11.95;8.50;;;;;;;3.00;100.00;100202.19;5054407;28;20064;-87
2021/12/05 12:23:05;;;;;;;11.95;8.60;;;;;;;3.03;100.00;100209.06;5054763;28;20078;-85
2021/12/05 12:25:34;;;;;;;13.20;8.75;;;;;;;3.00;100.00;100202.19;5048403;28;20091;-85
2021/12/05 12:28:02;;;;;;;12.98;8.90;;;;;;;3.01;100.00;100198.78;5063112;28;20111;-85
2021/12/05 12:30:33;;;;;;;14.90;9.60;;;;;;;3.19;100.00;100207.28;5054850;28;20044;-84
2021/12/05 12:33:09;;;;;;;14.18;9.75;;;;;;;3.19;100.00;100209.88;5054791;28;20025;-84
2021/12/05 12:35:37;;;;;;;16.33;10.38;;;;;;;3.13;100.00;100215.03;5045716;28;20025;-85
2021/12/05 12:38:10;;;;;;;15.55;10.48;;;;;;;3.13;100.00;100222.75;5053959;28;20100;-85
2021/12/05 12:40:45;;;;;;;14.18;10.13;;;;;;;3.08;100.00;100224.50;5052967;28;20033;-85
2021/12/05 12:43:35;;;;;;;15.18;9.98;;;;;;;3.13;100.00;100230.50;5052281;28;20017;-85
2021/12/05 12:46:32;;;;;;;15.07;10.30;;;;;;;3.14;100.00;100227.94;5048516;28;20476;-85
2021/12/05 12:49:00;;;;;;;15.85;9.90;;;;;;;3.17;100.00;100229.63;5050794;28;20033;-83
2021/12/05 12:51:33;;;;;;;15.98;10.68;;;;;;;3.13;100.00;100231.34;5052013;28;20524;-84
2021/12/05 12:54:03;;;;;;;16.45;10.95;;;;;;;3.08;100.00;100233.09;5054305;28;20048;-86
2021/12/05 12:56:29;;;;;;;16.00;10.50;;;;;;;3.07;100.00;100235.66;5064082;28;20056;-86
2021/12/05 12:58:59;;;;;;;14.73;10.25;;;;;;;3.03;100.00;100235.66;5060695;28;20503;-85
2021/12/05 13:04:55;;;;;;;17.35;9.90;;;;;;;3.10;100.00;100251.97;5073899;28;20037;-84
2021/12/05 13:12:50;;;;;;;14.85;9.63;;;;;;;3.00;100.00;100251.13;5054332;28;20029;-84
2021/12/05 13:15:40;;;;;;;15.23;10.05;;;;;;;3.02;100.00;100262.28;5054348;28;20052;-84
2021/12/05 13:18:11;;;;;;;15.73;10.13;;;;;;;3.05;100.00;100258.84;5053288;28;20024;-84
2021/12/05 13:20:42;;;;;;;16.05;10.73;;;;;;;3.02;100.00;100270.00;5052927;28;20366;-84
2021/12/05 13:23:11;;;;;;;15.93;11.07;;;;;;;2.99;100.00;100261.44;5053967;28;20425;-84
2021/12/05 13:26:20;;;;;;;16.27;11.57;;;;;;;3.02;100.00;100270.00;5053335;28;20071;-84
2021/12/05 13:29:10;;;;;;;18.23;10.70;;;;;;;2.97;100.00;100268.28;5053809;28;20029;-84
2021/12/05 13:31:41;;;;;;;16.38;9.95;;;;;;;2.93;100.00;100280.31;5052970;28;20055;-83
2021/12/05 13:34:30;;;;;;;16.52;10.82;;;;;;;2.94;100.00;100284.63;5053965;28;20057;-84
2021/12/05 13:37:13;;;;;;;13.95;9.70;;;;;;;2.93;100.00;100287.19;5053790;28;20025;-84
2021/12/05 13:39:47;;;;;;;15.43;10.70;;;;;;;2.94;100.00;100294.94;5053030;28;20040;-84
2021/12/05 13:42:17;;;;;;;14.95;10.48;;;;;;;2.96;100.00;100288.03;5053677;28;20385;-84
2021/12/05 13:45:04;;;;;;;15.40;10.25;;;;;;;2.99;100.00;100300.91;5053071;28;20060;-84
2021/12/05 13:47:39;;;;;;;15.30;10.27;;;;;;;2.93;100.00;100293.19;5051289;28;20033;-84
2021/12/05 13:50:25;;;;;;;17.25;11.10;;;;;;;3.04;100.00;100309.50;5053644;28;20028;-84
2021/12/05 13:53:07;;;;;;;17.77;11.10;;;;;;;3.07;100.00;100306.03;5052768;28;20396;-84
2021/12/05 13:55:41;;;;;;;18.75;11.40;;;;;;;3.10;100.00;100308.63;5053496;28;20388;-84
2021/12/05 13:58:21;;;;;;;16.10;11.07;;;;;;;3.13;100.00;100311.19;5053730;28;20091;-84
2021/12/05 14:00:51;;;;;;;17.25;11.07;;;;;;;3.13;100.00;100312.91;5052598;28;20021;-83
2021/12/05 14:03:47;;;;;;;19.05;11.60;;;;;;;3.18;100.00;100311.19;5052471;28;20154;-84
2021/12/05 14:06:43;;;;;;;14.90;10.18;;;;;;;3.18;100.00;100316.34;5052452;28;20028;-84
2021/12/05 14:09:17;;;;;;;17.15;10.20;;;;;;;3.11;100.00;100315.50;5052999;28;20485;-84
2021/12/05 14:11:48;;;;;;;12.73;8.75;;;;;;;3.04;100.00;100317.22;5051758;28;20029;-84
2021/12/05 14:14:15;;;;;;;14.15;9.30;;;;;;;3.01;100.00;100316.38;5051996;28;20057;-84
2021/12/05 14:16:43;;;;;;;15.73;9.75;;;;;;;3.04;100.00;100332.69;5058255;28;20029;-84
2021/12/05 14:19:12;;;;;;;15.32;10.27;;;;;;;3.00;100.00;100327.53;5053109;28;20382;-84
2021/12/05 14:21:44;;;;;;;14.15;10.15;;;;;;;3.03;100.00;100337.81;5051827;28;20040;-84
2021/12/05 14:24:11;;;;;;;16.08;10.55;;;;;;;3.07;100.00;100338.66;5054232;28;20431;-83
2021/12/05 14:26:39;;;;;;;13.50;9.15;;;;;;;3.02;100.00;100336.97;5061476;28;20090;-84
2021/12/05 14:29:12;;;;;;;14.02;9.65;;;;;;;3.02;100.00;100346.41;5058067;28;20754;-84
2021/12/05 14:31:42;;;;;;;12.77;8.82;;;;;;;3.01;100.00;100365.31;5032839;28;20486;-84
2021/12/05 14:34:09;;;;;;;14.95;9.00;;;;;;;2.96;100.00;100362.72;5039730;28;20035;-84
2021/12/05 14:36:49;;;;;;;12.93;9.00;;;;;;;2.97;100.00;100374.72;5058611;28;20115;-84
2021/12/05 14:39:19;;;;;;;14.00;9.13;;;;;;;2.95;100.00;100378.19;5063879;28;20063;-84
2021/12/05 14:41:49;;;;;;;17.15;9.02;;;;;;;2.90;100.00;100380.72;5050698;28;20025;-84
2021/12/05 14:44:15;;;;;;;12.30;8.45;;;;;;;2.87;100.00;100391.03;5052664;28;20369;-84
2021/12/05 14:46:49;;;;;;;12.77;8.63;;;;;;;2.87;100.00;100391.03;5052215;28;20412;-84
2021/12/05 14:49:15;;;;;;;15.23;8.35;;;;;;;2.87;100.00;100391.03;5051084;28;20048;-84
2021/12/05 14:51:43;;;;;;;12.82;8.45;;;;;;;2.87;100.00;100388.47;5052379;28;20033;-83
2021/12/05 14:54:09;;;;;;;13.30;9.40;;;;;;;2.87;100.00;100398.75;5052303;28;20048;-84
2021/12/05 14:56:38;;;;;;;14.60;8.88;;;;;;;2.89;100.00;100403.94;5051727;28;20017;-84
2021/12/05 14:59:10;;;;;;;13.73;9.30;;;;;;;2.89;100.00;100417.66;5052353;28;20025;-83
2021/12/05 15:01:37;;;;;;;16.98;9.38;;;;;;;2.86;100.00;100417.66;5051068;28;20104;-82
2021/12/05 15:04:05;;;;;;;14.82;8.70;;;;;;;2.89;100.00;100421.94;5051464;28;20032;-82
2021/12/05 15:06:39;;;;;;;18.73;10.32;;;;;;;2.89;100.00;100425.38;5051991;28;20461;-79
2021/12/05 15:09:06;;;;;;;;;;;;;;;2.97;100.00;100430.53;5056992;28;20032;-83
2021/12/05 15:11:32;;;;;;;16.13;9.50;;;;;;;2.96;100.00;100442.53;5058891;28;19916;-83
2021/12/05 15:14:05;;;;;;;14.65;9.48;;;;;;;2.91;100.00;100436.53;5056678;28;20111;-83
2021/12/05 15:16:31;;;;;;;258.08;31.48;;;;;;;2.94;100.00;100445.97;5051155;28;20037;-84
2021/12/05 15:18:56;;;;;;;54.88;18.50;;;;;;;2.98;100.00;100435.69;5053197;28;20496;-84
2021/12/05 15:21:21;;;;;;;31.92;19.15;;;;;;;3.14;100.00;100449.44;5051721;28;20049;-84
2021/12/05 15:23:47;;;;;;;17.75;10.68;;;;;;;3.05;100.00;100447.72;5051657;28;20056;-86
2021/12/05 15:26:12;;;;;;;196.05;30.15;;;;;;;3.11;100.00;100458.88;5052968;28;20052;-84
2021/12/05 15:28:38;;;;;;;47.50;20.02;;;;;;;3.18;100.00;100471.75;5051651;28;20040;-85
2021/12/05 15:31:04;;;;;;;51.13;23.80;;;;;;;3.28;100.00;100476.06;5049414;28;20021;-83
2021/12/05 15:33:32;;;;;;;732.05;69.85;;;;;;;3.35;100.00;100479.50;5053341;28;20443;-84
2021/12/05 15:35:59;;;;;;;120.70;24.45;;;;;;;3.28;100.00;100482.94;5051719;28;20049;-83
2021/12/05 15:38:27;;;;;;;27.05;14.50;;;;;;;3.22;100.00;100490.66;5061914;28;20503;-85
2021/12/05 15:41:23;;;;;;;20.05;11.50;;;;;;;3.31;100.00;100498.41;5065114;28;20024;-84
2021/12/05 15:43:49;;;;;;;46.30;22.77;;;;;;;3.42;100.00;100501.81;5031577;28;20405;-84
2021/12/05 15:46:14;;;;;;;40.05;19.73;;;;;;;3.48;100.00;100509.56;5050012;28;20029;-83
2021/12/05 15:48:40;;;;;;;22.30;12.23;;;;;;;3.33;100.00;100506.97;5051819;28;20033;-83
2021/12/05 15:51:11;;;;;;;22.27;11.95;;;;;;;3.26;100.00;100500.09;5050557;28;20035;-84
2021/12/05 15:53:38;;;;;;;20.20;11.55;;;;;;;3.34;100.00;100508.72;5051224;28;20469;-83
2021/12/05 15:56:06;;;;;;;18.65;10.82;;;;;;;3.40;100.00;100524.19;5050848;28;20466;-84
2021/12/05 15:58:40;;;;;;;20.90;15.50;;;;;;;3.28;100.00;100521.59;5049758;28;20024;-84
2021/12/05 16:01:13;;;;;;;16.45;9.98;;;;;;;3.13;100.00;100519.81;5048528;28;20082;-83
2021/12/05 16:03:51;;;;;;;77.88;70.07;;;;;;;3.27;100.00;100531.03;5045174;28;20104;-83
2021/12/05 16:06:20;;;;;;;74.30;66.53;;;;;;;3.29;100.00;100541.31;5050900;28;20028;-84
2021/12/05 16:08:51;;;;;;;56.22;47.05;;;;;;;3.31;100.00;100533.63;5051451;28;20033;-83
2021/12/05 16:11:19;;;;;;;95.78;78.22;;;;;;;3.37;100.00;100541.31;5050938;28;20021;-83
2021/12/05 16:13:48;;;;;;;43.72;29.88;;;;;;;3.15;100.00;100538.72;5050997;28;20029;-83
2021/12/05 16:16:17;;;;;;;35.33;26.05;;;;;;;3.13;100.00;100544.72;5049940;28;20116;-84
2021/12/05 16:18:45;;;;;;;32.80;18.58;;;;;;;3.12;100.00;100550.75;5051312;28;20040;-83
2021/12/05 16:21:18;;;;;;;30.92;20.30;;;;;;;3.10;100.00;100561.03;5050145;28;20560;-84
2021/12/05 16:23:45;;;;;;;30.97;18.57;;;;;;;3.01;100.00;100564.47;5051347;28;20037;-83
2021/12/05 16:26:13;;;;;;;35.78;25.05;;;;;;;3.09;100.00;100573.91;5050381;28;20370;-84
2021/12/05 16:28:43;;;;;;;24.58;17.27;;;;;;;3.03;100.00;100567.03;5051125;28;20540;-83
2021/12/05 16:31:21;;;;;;;38.47;25.73;;;;;;;3.20;100.00;100575.66;5041198;28;20104;-83
2021/12/05 16:34:00;;;;;;;32.40;24.25;;;;;;;3.24;100.00;100574.81;5050562;28;20051;-83
2021/12/05 16:36:41;;;;;;;30.90;20.27;;;;;;;3.31;100.00;100586.00;5052398;28;20028;-83